Time;durP1;ratioP1;P1;durP2;ratioP2;P2;SDS_P1;SDS_P2;PMS_P1;PMS_P2;Temp;Humidity;BMP_temperature;BMP_pressure;BME280_temperature;BME280_humidity;BME280_pressure;Samples;Min_cycle;Max_cycle;Signal;HPM_P1;HPM_P2
2022/10/13 00:00:40;;;;;;;15.10;13.50;;;12.40;99.90;;;;;;5013620;28;20439;-74
2022/10/13 00:03:06;;;;;;;15.93;13.00;;;12.40;99.90;;;;;;5012991;28;20489;-74
2022/10/13 00:05:32;;;;;;;19.90;14.30;;;12.40;99.90;;;;;;5013289;28;20553;-72
2022/10/13 00:07:58;;;;;;;17.30;13.93;;;12.40;99.90;;;;;;4995942;28;20952;-73
2022/10/13 00:10:24;;;;;;;14.90;12.80;;;12.40;99.90;;;;;;5012819;28;20419;-73
2022/10/13 00:12:50;;;;;;;16.37;13.00;;;12.40;99.90;;;;;;5012676;28;20422;-74
2022/10/13 00:15:16;;;;;;;14.03;12.53;;;12.40;99.90;;;;;;5012585;28;20418;-73
2022/10/13 00:17:42;;;;;;;14.77;12.50;;;12.40;99.90;;;;;;5012399;28;20278;-73
2022/10/13 00:20:08;;;;;;;16.07;11.93;;;12.40;99.90;;;;;;5012679;28;20481;-74
2022/10/13 00:22:34;;;;;;;14.33;12.83;;;12.40;99.90;;;;;;5012980;28;20701;-74
2022/10/13 00:25:00;;;;;;;15.57;12.23;;;12.40;99.90;;;;;;5012406;28;20545;-73
2022/10/13 00:27:25;;;;;;;18.40;14.03;;;12.40;99.90;;;;;;5011832;28;20610;-74
2022/10/13 00:29:51;;;;;;;15.80;13.33;;;12.40;99.90;;;;;;5012604;28;20185;-73
2022/10/13 00:32:17;;;;;;;13.10;11.77;;;12.40;99.90;;;;;;5010194;28;20179;-74
2022/10/13 00:34:43;;;;;;;13.40;12.00;;;12.40;99.90;;;;;;5012804;28;20515;-73
2022/10/13 00:37:09;;;;;;;19.30;12.80;;;12.40;99.90;;;;;;5011162;28;20437;-73
2022/10/13 00:39:36;;;;;;;16.30;13.73;;;12.50;99.90;;;;;;5012681;28;20186;-73
2022/10/13 00:42:02;;;;;;;14.60;13.10;;;12.50;99.90;;;;;;5012146;28;20505;-74
2022/10/13 00:45:06;;;;;;;18.47;13.37;;;12.60;99.90;;;;;;4992327;28;20502;-73
2022/10/13 00:47:43;;;;;;;14.87;13.37;;;12.60;99.90;;;;;;4992150;28;20430;-73
2022/10/13 00:50:22;;;;;;;18.73;14.17;;;12.70;99.90;;;;;;4992615;28;20411;-72
2022/10/13 00:52:50;;;;;;;14.13;12.50;;;12.60;99.90;;;;;;5013314;28;20478;-73
2022/10/13 00:55:20;;;;;;;14.07;12.67;;;12.60;99.90;;;;;;5012233;28;20437;-73
2022/10/13 00:57:47;;;;;;;16.50;13.87;;;12.70;99.90;;;;;;5012095;28;20530;-73
2022/10/13 01:00:13;;;;;;;14.07;12.57;;;12.70;99.90;;;;;;5012255;28;20481;-74
2022/10/13 01:02:38;;;;;;;15.27;13.70;;;12.70;99.90;;;;;;5012722;28;20445;-73
2022/10/13 01:05:06;;;;;;;17.00;14.53;;;12.70;99.90;;;;;;5012694;28;20489;-73
2022/10/13 01:07:33;;;;;;;15.00;12.67;;;12.70;99.90;;;;;;5028143;28;20620;-74
2022/10/13 01:10:01;;;;;;;16.77;13.87;;;12.80;99.90;;;;;;5032450;28;20425;-73
2022/10/13 01:12:32;;;;;;;13.27;11.93;;;12.80;99.90;;;;;;5030729;28;20981;-73
2022/10/13 01:15:26;;;;;;;14.37;12.80;;;12.80;99.90;;;;;;5032337;28;20427;-73
2022/10/13 01:17:55;;;;;;;14.40;12.93;;;12.80;99.90;;;;;;4954621;28;20473;-74
2022/10/13 01:20:47;;;;;;;13.73;11.90;;;12.80;99.90;;;;;;5030440;28;20510;-74
2022/10/13 01:23:51;;;;;;;13.80;12.30;;;12.80;99.90;;;;;;5018734;28;20439;-74
2022/10/13 01:26:36;;;;;;;14.47;12.87;;;12.80;99.90;;;;;;5017456;28;20488;-74
2022/10/13 01:29:36;;;;;;;15.30;12.70;;;12.80;99.90;;;;;;5032306;28;20434;-73
2022/10/13 01:32:22;;;;;;;13.60;12.30;;;12.70;99.90;;;;;;5001830;28;21025;-73
2022/10/13 01:35:08;;;;;;;16.07;13.07;;;12.70;99.90;;;;;;5031862;28;20436;-73
2022/10/13 01:37:44;;;;;;;14.83;12.57;;;12.70;99.90;;;;;;5030791;28;20444;-74
2022/10/13 01:40:28;;;;;;;14.77;12.27;;;12.70;99.90;;;;;;5031933;28;20877;-73
2022/10/13 01:42:57;;;;;;;16.33;12.43;;;12.80;99.90;;;;;;5031535;28;20468;-73
2022/10/13 01:45:29;;;;;;;16.80;13.33;;;12.70;99.90;;;;;;5031412;28;20885;-73
2022/10/13 01:47:58;;;;;;;13.87;12.40;;;12.80;99.90;;;;;;5031301;28;20432;-73
2022/10/13 01:50:24;;;;;;;12.70;11.37;;;12.80;99.90;;;;;;5012957;28;20927;-73
2022/10/13 01:52:52;;;;;;;13.07;11.77;;;12.80;99.90;;;;;;5031411;28;20491;-73
2022/10/13 01:55:17;;;;;;;14.93;13.43;;;12.80;99.90;;;;;;5031419;28;20418;-73
2022/10/13 01:57:44;;;;;;;15.63;12.70;;;12.90;99.90;;;;;;5032036;28;20877;-73
2022/10/13 02:00:18;;;;;;;15.67;12.93;;;12.90;99.90;;;;;;5035133;28;20179;-73
2022/10/13 02:03:07;;;;;;;16.67;13.20;;;12.90;99.90;;;;;;5035631;28;20761;-73
2022/10/13 02:05:48;;;;;;;16.60;12.67;;;12.90;99.90;;;;;;5033953;28;20462;-72
2022/10/13 02:08:36;;;;;;;16.40;12.93;;;12.90;99.90;;;;;;5015257;28;20475;-73
2022/10/13 02:11:18;;;;;;;19.90;14.00;;;12.90;99.90;;;;;;4997564;28;20792;-73
2022/10/13 02:14:12;;;;;;;16.43;13.23;;;12.90;99.90;;;;;;5014963;28;20435;-73
2022/10/13 02:16:42;;;;;;;16.83;14.40;;;12.90;99.90;;;;;;5011447;28;20449;-73
2022/10/13 02:19:11;;;;;;;16.73;13.93;;;12.90;99.90;;;;;;5015534;28;20410;-73
2022/10/13 02:21:38;;;;;;;16.03;13.27;;;12.90;99.90;;;;;;5014823;28;20429;-73
2022/10/13 02:24:05;;;;;;;24.00;14.23;;;12.90;99.90;;;;;;5015332;28;20448;-73
2022/10/13 02:26:32;;;;;;;13.90;12.30;;;12.90;99.90;;;;;;5014873;28;20426;-73
2022/10/13 02:28:59;;;;;;;15.30;13.33;;;12.90;99.90;;;;;;5015094;28;20952;-72
2022/10/13 02:31:24;;;;;;;17.03;13.17;;;12.90;99.90;;;;;;5014004;28;20518;-73
2022/10/13 02:33:50;;;;;;;15.37;12.17;;;13.00;99.90;;;;;;5015214;28;20520;-72
2022/10/13 02:36:16;;;;;;;18.90;12.10;;;13.00;99.90;;;;;;5014557;28;20197;-73
2022/10/13 02:38:41;;;;;;;16.53;13.70;;;12.90;99.90;;;;;;5015146;28;20408;-73
2022/10/13 02:41:07;;;;;;;16.70;13.20;;;12.90;99.90;;;;;;5015107;28;20181;-72
2022/10/13 02:43:36;;;;;;;14.47;12.97;;;12.90;99.90;;;;;;5013621;28;20274;-73
2022/10/13 02:46:02;;;;;;;16.87;13.47;;;12.90;99.90;;;;;;5014415;28;20187;-72
2022/10/13 02:48:28;;;;;;;15.23;12.90;;;13.00;99.90;;;;;;5014081;28;20907;-72
2022/10/13 02:50:53;;;;;;;15.67;13.37;;;13.00;99.90;;;;;;5007535;28;20554;-72
2022/10/13 02:53:19;;;;;;;15.30;11.83;;;13.00;99.90;;;;;;4994727;28;20659;-73
2022/10/13 02:55:45;;;;;;;16.10;12.23;;;13.00;99.90;;;;;;5000836;28;20190;-73
2022/10/13 02:58:10;;;;;;;15.00;13.47;;;13.10;99.90;;;;;;5014723;28;20176;-73
2022/10/13 03:00:38;;;;;;;18.93;13.27;;;13.10;99.90;;;;;;5013233;28;20218;-72
2022/10/13 03:03:05;;;;;;;13.40;12.00;;;13.10;99.90;;;;;;5014776;28;20177;-72
2022/10/13 03:05:30;;;;;;;16.30;13.17;;;13.30;99.90;;;;;;5013053;28;20471;-74
2022/10/13 03:07:56;;;;;;;17.40;13.93;;;13.20;99.90;;;;;;5034316;28;20422;-74
2022/10/13 03:10:22;;;;;;;15.10;13.27;;;13.20;99.90;;;;;;5032489;28;20184;-74
2022/10/13 03:12:48;;;;;;;16.37;13.10;;;13.20;99.90;;;;;;5025303;28;20209;-74
2022/10/13 03:15:13;;;;;;;16.07;13.10;;;13.30;99.90;;;;;;5032765;28;20272;-74
2022/10/13 03:17:40;;;;;;;15.93;13.77;;;13.40;99.90;;;;;;5033503;28;20222;-73
2022/10/13 03:20:07;;;;;;;15.70;13.57;;;13.30;99.90;;;;;;5034109;28;20908;-74
2022/10/13 03:22:32;;;;;;;14.43;12.43;;;13.30;99.90;;;;;;5015059;28;20267;-74
2022/10/13 03:24:58;;;;;;;15.03;13.53;;;13.30;99.90;;;;;;5033889;28;20543;-74
2022/10/13 03:27:24;;;;;;;15.93;13.50;;;13.30;99.90;;;;;;5033148;28;20705;-74
2022/10/13 03:29:50;;;;;;;18.40;13.80;;;13.30;99.90;;;;;;5032952;28;20845;-74
2022/10/13 03:32:16;;;;;;;17.27;12.60;;;13.30;99.90;;;;;;5033916;28;20185;-74
2022/10/13 03:34:41;;;;;;;15.40;13.50;;;13.30;99.90;;;;;;5032946;28;20419;-74
2022/10/13 03:37:07;;;;;;;16.50;13.23;;;13.40;99.90;;;;;;5033841;28;20581;-74
2022/10/13 03:39:33;;;;;;;15.10;13.13;;;13.40;99.90;;;;;;5033179;28;20177;-74
2022/10/13 03:41:59;;;;;;;16.47;14.07;;;13.30;99.90;;;;;;5032296;28;20434;-74
2022/10/13 03:44:24;;;;;;;18.87;12.83;;;13.30;99.90;;;;;;5032745;28;20212;-74
2022/10/13 03:46:50;;;;;;;15.30;12.97;;;13.30;99.90;;;;;;5032585;28;20197;-74
2022/10/13 03:49:17;;;;;;;17.67;12.57;;;13.50;99.90;;;;;;5033923;28;20184;-74
2022/10/13 03:51:44;;;;;;;16.00;13.87;;;13.40;99.90;;;;;;5032306;28;20428;-74
2022/10/13 03:54:11;;;;;;;15.60;13.03;;;13.40;99.90;;;;;;5033587;28;20416;-74
2022/10/13 03:56:38;;;;;;;15.70;12.67;;;13.40;99.90;;;;;;5031930;28;20429;-74
2022/10/13 03:59:03;;;;;;;14.20;12.70;;;13.40;99.90;;;;;;5033409;28;20404;-74
2022/10/13 04:01:31;;;;;;;13.83;12.33;;;13.40;99.90;;;;;;5032528;28;20431;-74
2022/10/13 04:03:58;;;;;;;13.37;12.00;;;13.40;99.90;;;;;;5033295;28;20933;-73
2022/10/13 04:06:25;;;;;;;15.07;12.00;;;13.40;99.90;;;;;;5023092;28;20864;-74
2022/10/13 04:08:50;;;;;;;16.63;12.17;;;13.40;99.90;;;;;;5012496;28;20447;-74
2022/10/13 04:11:17;;;;;;;13.63;11.83;;;13.50;99.90;;;;;;5013358;28;20436;-74
2022/10/13 04:13:43;;;;;;;14.60;12.57;;;13.40;99.90;;;;;;5012035;28;20190;-73
2022/10/13 04:16:15;;;;;;;14.43;13.03;;;13.50;99.90;;;;;;4995714;28;20421;-73
2022/10/13 04:18:41;;;;;;;13.03;11.73;;;13.50;99.90;;;;;;5012710;28;20460;-74
2022/10/13 04:21:09;;;;;;;13.53;12.03;;;13.40;99.90;;;;;;5013140;28;20425;-73
2022/10/13 04:23:35;;;;;;;15.00;12.43;;;13.50;99.90;;;;;;5012584;28;20413;-74
2022/10/13 04:26:02;;;;;;;16.33;12.30;;;13.40;99.90;;;;;;5012209;28;20425;-73
2022/10/13 04:28:28;;;;;;;14.30;11.73;;;13.40;99.90;;;;;;5012549;28;20504;-74
2022/10/13 04:30:53;;;;;;;15.40;12.20;;;13.40;99.90;;;;;;5013077;28;20419;-73
2022/10/13 04:33:19;;;;;;;18.17;12.97;;;13.50;99.90;;;;;;5011064;28;20438;-74
2022/10/13 04:35:45;;;;;;;17.70;13.10;;;13.40;99.90;;;;;;4993642;28;20239;-73
2022/10/13 04:38:11;;;;;;;13.80;12.33;;;13.40;99.90;;;;;;5000880;28;20267;-70
2022/10/13 04:40:36;;;;;;;16.90;12.40;;;13.50;99.90;;;;;;4994823;28;20638;-70
2022/10/13 04:43:04;;;;;;;17.13;13.03;;;13.40;99.90;;;;;;4995305;28;20189;-71
2022/10/13 04:45:30;;;;;;;13.27;11.97;;;13.40;99.90;;;;;;5012385;28;20324;-68
2022/10/13 04:47:56;;;;;;;14.70;12.70;;;13.40;99.90;;;;;;5013179;28;20513;-69
2022/10/13 04:50:21;;;;;;;16.30;12.50;;;13.40;99.90;;;;;;5012643;28;20181;-75
2022/10/13 04:52:47;;;;;;;14.40;12.03;;;13.40;99.90;;;;;;5012878;28;20536;-72
2022/10/13 04:55:13;;;;;;;15.50;11.50;;;13.30;99.90;;;;;;5013104;28;20186;-72
2022/10/13 04:57:39;;;;;;;15.10;12.93;;;13.20;99.90;;;;;;5012258;28;20667;-72
2022/10/13 05:00:08;;;;;;;17.60;13.53;;;13.20;99.90;;;;;;5012694;28;20493;-72
2022/10/13 05:02:35;;;;;;;20.00;14.23;;;13.20;99.90;;;;;;5010701;28;20628;-72
2022/10/13 05:05:00;;;;;;;19.23;13.80;;;13.20;99.90;;;;;;4995297;28;20457;-71
2022/10/13 05:07:26;;;;;;;16.90;13.90;;;13.20;99.90;;;;;;5028173;28;20461;-72
2022/10/13 05:09:52;;;;;;;19.40;14.90;;;13.20;99.90;;;;;;5032114;28;20180;-72
2022/10/13 05:12:18;;;;;;;21.57;14.77;;;13.20;99.90;;;;;;5032434;28;20524;-71
2022/10/13 05:14:43;;;;;;;16.83;14.40;;;13.20;99.90;;;;;;5031717;28;20186;-71
2022/10/13 05:17:09;;;;;;;18.47;14.77;;;13.20;99.90;;;;;;5031579;28;20620;-70
2022/10/13 05:19:35;;;;;;;18.70;13.80;;;13.20;99.90;;;;;;5031784;28;20182;-71
2022/10/13 05:22:00;;;;;;;20.27;13.37;;;13.30;99.90;;;;;;5019965;28;20204;-71
2022/10/13 05:24:37;;;;;;;16.37;13.67;;;13.30;99.90;;;;;;5011959;28;20268;-71
2022/10/13 05:27:06;;;;;;;15.63;12.20;;;13.30;99.90;;;;;;5012458;28;20631;-71
2022/10/13 05:29:32;;;;;;;17.80;13.00;;;13.20;99.90;;;;;;5011829;28;20465;-71
2022/10/13 05:31:57;;;;;;;16.33;11.43;;;13.20;99.90;;;;;;5017152;28;20439;-70
2022/10/13 05:34:23;;;;;;;16.43;13.87;;;13.20;99.90;;;;;;5030905;28;20196;-71
2022/10/13 05:36:49;;;;;;;15.13;13.30;;;13.30;99.90;;;;;;5035483;28;20179;-70
2022/10/13 05:39:14;;;;;;;17.90;13.00;;;13.20;99.90;;;;;;5035991;28;20179;-71
2022/10/13 05:41:40;;;;;;;17.80;12.80;;;13.20;99.90;;;;;;5035361;28;20183;-71
2022/10/13 05:44:07;;;;;;;13.60;11.77;;;13.20;99.90;;;;;;5035837;28;20210;-72
2022/10/13 05:46:33;;;;;;;15.10;12.40;;;13.20;99.90;;;;;;5033026;28;20195;-71
2022/10/13 05:48:59;;;;;;;19.53;13.47;;;13.20;99.90;;;;;;5035789;28;20402;-71
2022/10/13 05:51:29;;;;;;;22.27;13.77;;;13.20;99.90;;;;;;5016991;28;20481;-69
2022/10/13 05:54:19;;;;;;;15.20;11.90;;;13.20;99.90;;;;;;5016286;28;20219;-70
2022/10/13 05:57:05;;;;;;;16.57;12.67;;;13.20;99.90;;;;;;5012861;28;20493;-70
2022/10/13 05:59:38;;;;;;;16.80;13.27;;;13.10;99.90;;;;;;5015023;28;20896;-70
2022/10/13 06:02:08;;;;;;;19.47;13.40;;;13.10;99.90;;;;;;5015550;28;20420;-70
2022/10/13 06:04:46;;;;;;;34.70;16.33;;;13.10;99.90;;;;;;5015172;28;20458;-71
2022/10/13 06:07:12;;;;;;;26.90;14.80;;;13.20;99.90;;;;;;5029148;28;20453;-70
2022/10/13 06:09:39;;;;;;;20.93;13.97;;;13.20;99.90;;;;;;5034842;28;20429;-70
2022/10/13 06:12:06;;;;;;;25.53;15.87;;;13.20;99.90;;;;;;5033564;28;20426;-70
2022/10/13 06:14:32;;;;;;;20.40;14.67;;;13.20;99.90;;;;;;5032857;28;20788;-71
2022/10/13 06:16:58;;;;;;;20.20;14.10;;;13.20;99.90;;;;;;5034216;28;20439;-70
2022/10/13 06:19:23;;;;;;;24.23;15.07;;;13.30;99.90;;;;;;5034755;28;20196;-70
2022/10/13 06:21:49;;;;;;;20.33;13.80;;;13.30;99.90;;;;;;5033629;28;20189;-69
2022/10/13 06:24:15;;;;;;;19.17;14.10;;;13.30;99.90;;;;;;5034615;28;20306;-69
2022/10/13 06:26:40;;;;;;;26.40;15.83;;;13.30;99.90;;;;;;5031787;28;20191;-70
2022/10/13 06:29:06;;;;;;;20.83;15.20;;;13.30;99.90;;;;;;5031863;28;20196;-70
2022/10/13 06:31:32;;;;;;;17.30;13.90;;;13.30;99.90;;;;;;5034506;28;20172;-69
2022/10/13 06:33:58;;;;;;;15.93;13.73;;;13.30;99.90;;;;;;5035058;28;20174;-70
2022/10/13 06:36:24;;;;;;;18.33;14.43;;;13.30;99.90;;;;;;5034392;28;20179;-68
2022/10/13 06:38:50;;;;;;;20.03;13.80;;;13.40;99.90;;;;;;5034369;28;20419;-68
2022/10/13 06:41:16;;;;;;;18.40;14.40;;;13.40;99.90;;;;;;5034715;28;20181;-68
2022/10/13 06:43:42;;;;;;;17.70;13.57;;;13.40;99.90;;;;;;5027208;28;20418;-68
2022/10/13 06:46:08;;;;;;;21.13;14.40;;;13.40;99.90;;;;;;5013288;28;20907;-68
2022/10/13 06:48:34;;;;;;;20.63;15.40;;;13.40;99.90;;;;;;5018166;28;20501;-68
2022/10/13 06:51:04;;;;;;;16.40;14.70;;;13.50;99.90;;;;;;5020017;28;20441;-68
2022/10/13 06:53:31;;;;;;;17.73;14.00;;;13.60;99.90;;;;;;5026269;28;20176;-69
2022/10/13 06:56:01;;;;;;;19.53;14.20;;;13.50;99.90;;;;;;5034612;28;20399;-68
2022/10/13 06:58:27;;;;;;;18.37;13.43;;;13.50;99.90;;;;;;4976806;28;20800;-71
2022/10/13 07:00:54;;;;;;;18.57;13.53;;;13.50;99.90;;;;;;5033000;28;20422;-68
2022/10/13 07:03:20;;;;;;;15.20;13.60;;;13.50;99.90;;;;;;5033943;28;20773;-70
2022/10/13 07:05:46;;;;;;;16.50;13.77;;;13.50;99.90;;;;;;5031434;28;20455;-72
2022/10/13 07:08:12;;;;;;;13.90;12.50;;;13.50;99.90;;;;;;5014196;28;20399;-72
2022/10/13 07:10:39;;;;;;;15.10;13.00;;;13.60;99.90;;;;;;5008564;28;20259;-71
2022/10/13 07:13:05;;;;;;;12.97;11.60;;;13.60;99.90;;;;;;5014301;28;20944;-71
2022/10/13 07:15:30;;;;;;;14.40;11.60;;;13.70;99.90;;;;;;5013028;28;20517;-74
2022/10/13 07:17:56;;;;;;;16.60;11.87;;;13.70;99.90;;;;;;5014586;28;20423;-71
2022/10/13 07:20:24;;;;;;;14.33;12.10;;;13.70;99.90;;;;;;5012679;28;20186;-71
2022/10/13 07:22:53;;;;;;;17.10;11.13;;;13.80;99.90;;;;;;4994117;28;20227;-68
2022/10/13 07:25:19;;;;;;;13.20;11.10;;;13.80;99.90;;;;;;5001771;28;20535;-69
2022/10/13 07:27:45;;;;;;;13.23;9.97;;;13.90;99.90;;;;;;5012320;28;20425;-70
2022/10/13 07:30:12;;;;;;;17.23;12.47;;;13.90;99.90;;;;;;5014050;28;20416;-69
2022/10/13 07:32:40;;;;;;;13.00;10.80;;;14.00;99.90;;;;;;5013478;28;20182;-70
2022/10/13 07:35:08;;;;;;;15.70;11.90;;;14.00;99.90;;;;;;5014225;28;20414;-69
2022/10/13 07:37:34;;;;;;;12.77;10.60;;;14.10;99.90;;;;;;5013514;28;20409;-70
2022/10/13 07:40:00;;;;;;;12.40;11.07;;;14.20;99.90;;;;;;4953425;29;20455;-69
2022/10/13 07:42:26;;;;;;;15.43;10.63;;;14.20;99.90;;;;;;4953440;29;20418;-69
2022/10/13 07:44:51;;;;;;;15.87;12.17;;;14.20;99.90;;;;;;4957619;28;20448;-69
2022/10/13 07:47:17;;;;;;;13.97;10.50;;;14.30;99.90;;;;;;4972770;28;20422;-69
2022/10/13 07:49:43;;;;;;;12.77;10.50;;;14.40;99.90;;;;;;4971122;28;20259;-70
2022/10/13 07:52:09;;;;;;;13.20;10.30;;;14.40;99.90;;;;;;4972510;28;20238;-69
2022/10/13 07:54:34;;;;;;;12.43;10.33;;;14.40;99.90;;;;;;4971866;28;20188;-70
2022/10/13 07:57:00;;;;;;;11.60;10.47;;;14.30;99.90;;;;;;4947191;28;20180;-69
2022/10/13 07:59:26;;;;;;;11.10;9.70;;;14.40;99.90;;;;;;4933987;29;20638;-70
2022/10/13 08:01:51;;;;;;;16.20;11.93;;;14.60;99.90;;;;;;4933772;29;20177;-69
2022/10/13 08:04:17;;;;;;;11.77;10.50;;;14.60;99.90;;;;;;4953217;28;20298;-69
2022/10/13 08:06:43;;;;;;;14.20;10.57;;;14.80;99.90;;;;;;4953308;28;20247;-70
2022/10/13 08:09:09;;;;;;;13.40;11.50;;;14.90;99.90;;;;;;4952746;28;20629;-69
2022/10/13 08:11:35;;;;;;;15.37;10.37;;;15.10;99.90;;;;;;4985611;28;20206;-70
2022/10/13 08:14:00;;;;;;;11.60;9.63;;;15.20;99.90;;;;;;5006376;28;20424;-69
2022/10/13 08:16:27;;;;;;;22.73;12.50;;;15.20;99.90;;;;;;4994041;28;20415;-69
2022/10/13 08:18:53;;;;;;;10.40;9.30;;;15.30;99.90;;;;;;4993225;28;20183;-69
2022/10/13 08:21:21;;;;;;;11.50;9.33;;;15.40;99.90;;;;;;4993626;28;20412;-69
2022/10/13 08:23:48;;;;;;;12.93;9.83;;;15.50;99.90;;;;;;5006884;28;20185;-70
2022/10/13 08:26:16;;;;;;;11.07;9.67;;;15.30;99.90;;;;;;4995723;28;20419;-69
2022/10/13 08:28:42;;;;;;;11.07;9.97;;;15.50;99.90;;;;;;5012570;28;20487;-69
2022/10/13 08:31:08;;;;;;;13.33;10.40;;;15.60;99.90;;;;;;5013521;28;20968;-70
2022/10/13 08:33:34;;;;;;;11.90;10.67;;;15.70;99.90;;;;;;5013108;28;20178;-69
2022/10/13 08:35:59;;;;;;;14.50;9.90;;;15.70;99.90;;;;;;5012749;28;20218;-69
2022/10/13 08:38:25;;;;;;;11.33;10.23;;;15.80;99.90;;;;;;5012460;28;20607;-69
2022/10/13 08:40:52;;;;;;;9.97;9.07;;;15.90;99.90;;;;;;5010287;28;20233;-70
2022/10/13 08:43:21;;;;;;;11.77;9.90;;;16.00;99.90;;;;;;4995717;28;20505;-69
2022/10/13 08:45:49;;;;;;;10.70;9.80;;;16.00;99.90;;;;;;5012448;28;20817;-69
2022/10/13 08:48:21;;;;;;;11.63;9.80;;;16.10;99.90;;;;;;4978383;28;20430;-68
2022/10/13 08:50:55;;;;;;;12.20;8.87;;;16.30;99.90;;;;;;5011682;28;20433;-69
2022/10/13 08:53:29;;;;;;;12.10;8.83;;;16.40;99.90;;;;;;5012221;28;20776;-69
2022/10/13 08:55:59;;;;;;;12.60;8.80;;;16.50;99.90;;;;;;5006300;28;20427;-69
2022/10/13 08:58:31;;;;;;;9.60;8.60;;;16.70;99.90;;;;;;5012533;28;20516;-69
2022/10/13 09:01:18;;;;;;;11.50;8.80;;;16.70;99.90;;;;;;5011738;28;20445;-69
2022/10/13 09:03:56;;;;;;;9.60;8.60;;;16.70;99.90;;;;;;5011901;28;20524;-69
2022/10/13 09:06:27;;;;;;;9.60;8.60;;;16.90;99.90;;;;;;5018993;28;20538;-69
2022/10/13 09:09:01;;;;;;;9.90;8.90;;;17.10;99.90;;;;;;5031328;28;20941;-69
2022/10/13 09:11:48;;;;;;;10.40;8.63;;;17.20;99.90;;;;;;5015706;28;20484;-69
2022/10/13 09:14:26;;;;;;;9.80;7.50;;;17.50;99.90;;;;;;5035029;28;20591;-69
2022/10/13 09:16:53;;;;;;;11.00;8.70;;;17.80;99.90;;;;;;5035501;28;20504;-69
2022/10/13 09:19:32;;;;;;;9.83;8.93;;;18.00;99.90;;;;;;5036221;28;20466;-69
2022/10/13 09:22:27;;;;;;;8.67;7.87;;;18.20;99.90;;;;;;5016858;28;20448;-68
2022/10/13 09:25:14;;;;;;;18.43;9.57;;;18.20;99.90;;;;;;5035717;28;20436;-69
2022/10/13 09:27:52;;;;;;;9.57;8.10;;;18.30;99.90;;;;;;5035835;28;20928;-69
2022/10/13 09:30:26;;;;;;;12.50;8.73;;;18.10;99.20;;;;;;5036292;28;20416;-68
2022/10/13 09:33:18;;;;;;;9.83;8.90;;;17.70;99.90;;;;;;5035547;28;20494;-68
2022/10/13 09:36:06;;;;;;;9.23;8.33;;;17.70;99.90;;;;;;5034729;28;20912;-68
2022/10/13 09:38:32;;;;;;;9.80;8.53;;;17.80;99.90;;;;;;5036254;28;20852;-68
2022/10/13 09:41:10;;;;;;;9.50;8.60;;;17.90;99.90;;;;;;5035155;28;20877;-68
2022/10/13 09:43:46;;;;;;;11.80;8.27;;;17.70;99.90;;;;;;5035737;28;20404;-68
2022/10/13 09:46:25;;;;;;;11.70;8.10;;;17.80;99.90;;;;;;5018354;28;20427;-68
2022/10/13 09:48:54;;;;;;;8.80;7.97;;;17.80;99.90;;;;;;5034415;28;20425;-68
2022/10/13 09:51:34;;;;;;;8.83;7.93;;;17.90;99.90;;;;;;5016439;28;20414;-68
2022/10/13 09:54:00;;;;;;;11.07;7.27;;;18.00;99.90;;;;;;5015587;28;20508;-68
2022/10/13 09:56:29;;;;;;;12.13;9.00;;;18.00;99.90;;;;;;4998623;28;20406;-68
2022/10/13 09:59:22;;;;;;;9.37;8.40;;;17.90;99.30;;;;;;5015495;28;20750;-68
2022/10/13 10:01:50;;;;;;;9.43;8.53;;;17.90;99.90;;;;;;5015370;28;20398;-68
2022/10/13 10:04:21;;;;;;;8.57;7.77;;;18.00;99.90;;;;;;5014276;28;20936;-68
2022/10/13 10:06:47;;;;;;;9.80;8.37;;;18.10;99.90;;;;;;5015438;28;20917;-68
2022/10/13 10:09:43;;;;;;;10.40;9.13;;;18.20;99.90;;;;;;5015801;28;20517;-68
2022/10/13 10:12:16;;;;;;;11.70;7.70;;;18.50;99.70;;;;;;5015424;28;20191;-68
2022/10/13 10:14:42;;;;;;;8.10;7.40;;;18.80;99.90;;;;;;5015050;28;20477;-69
2022/10/13 10:17:20;;;;;;;10.53;9.63;;;19.00;97.80;;;;;;5015645;28;20506;-68
2022/10/13 10:19:46;;;;;;;8.90;8.03;;;19.10;98.00;;;;;;5021425;28;20425;-68
2022/10/13 10:22:29;;;;;;;9.70;8.70;;;19.10;98.20;;;;;;5035660;28;20421;-68
2022/10/13 10:25:20;;;;;;;10.80;9.90;;;19.10;96.50;;;;;;5034678;28;20241;-68
2022/10/13 10:28:09;;;;;;;8.90;8.10;;;19.10;97.00;;;;;;5034679;28;20921;-68
2022/10/13 10:30:40;;;;;;;12.30;11.20;;;19.00;97.10;;;;;;5034377;28;20492;-68
2022/10/13 10:33:20;;;;;;;12.30;11.00;;;18.90;96.70;;;;;;5034610;28;20409;-68
2022/10/13 10:36:05;;;;;;;8.87;7.97;;;18.80;96.40;;;;;;5034585;28;20409;-68
2022/10/13 10:38:50;;;;;;;9.30;8.37;;;18.70;97.20;;;;;;5035095;28;20401;-68
2022/10/13 10:41:45;;;;;;;9.87;7.87;;;18.70;97.80;;;;;;5035462;28;20401;-68
2022/10/13 10:44:20;;;;;;;13.67;10.00;;;18.70;98.50;;;;;;5034975;28;20448;-68
2022/10/13 10:46:48;;;;;;;8.00;7.30;;;18.60;97.80;;;;;;5033915;28;20416;-68
2022/10/13 10:49:29;;;;;;;10.97;9.03;;;18.60;98.50;;;;;;5033944;28;20462;-68
2022/10/13 10:51:57;;;;;;;8.40;7.70;;;18.60;98.10;;;;;;5033554;28;20439;-68
2022/10/13 10:54:22;;;;;;;9.37;8.40;;;18.60;98.80;;;;;;5034874;28;20508;-68
2022/10/13 10:57:00;;;;;;;11.13;10.20;;;18.70;99.10;;;;;;5034160;28;20500;-68
2022/10/13 10:59:39;;;;;;;11.27;8.20;;;18.90;98.60;;;;;;5034638;28;20603;-68
2022/10/13 11:02:07;;;;;;;10.03;9.03;;;19.30;99.10;;;;;;5034149;28;20398;-68
2022/10/13 11:04:47;;;;;;;11.90;8.30;;;19.60;97.50;;;;;;5034321;28;20465;-68
2022/10/13 11:07:13;;;;;;;10.87;8.20;;;19.90;95.60;;;;;;5034224;28;20449;-68
2022/10/13 11:09:41;;;;;;;8.53;7.60;;;20.20;94.70;;;;;;5034483;28;20432;-68
2022/10/13 11:12:19;;;;;;;9.33;8.33;;;20.20;93.90;;;;;;5015736;28;20175;-68
2022/10/13 11:15:06;;;;;;;9.00;7.10;;;20.30;93.70;;;;;;5033958;28;20758;-73
2022/10/13 11:17:36;;;;;;;7.70;7.00;;;20.30;93.40;;;;;;5034502;28;20730;-68
2022/10/13 11:20:25;;;;;;;9.23;7.97;;;20.20;93.80;;;;;;5032034;28;20966;-68
2022/10/13 11:22:59;;;;;;;8.17;7.37;;;20.20;93.80;;;;;;5033555;28;20405;-69
2022/10/13 11:25:38;;;;;;;8.37;7.53;;;20.10;94.30;;;;;;5034067;28;20452;-68
2022/10/13 11:28:43;;;;;;;8.93;8.03;;;20.10;94.10;;;;;;5033528;28;20440;-68
2022/10/13 11:31:12;;;;;;;7.83;7.17;;;20.10;94.40;;;;;;5032735;28;20479;-68
2022/10/13 11:33:38;;;;;;;9.03;8.10;;;20.10;94.40;;;;;;5033997;28;20421;-68
2022/10/13 11:36:45;;;;;;;8.67;7.97;;;20.20;94.10;;;;;;5033082;28;20463;-69
2022/10/13 11:39:26;;;;;;;11.17;8.97;;;20.30;94.80;;;;;;5033961;28;20190;-68
2022/10/13 11:42:21;;;;;;;8.63;7.90;;;20.20;93.60;;;;;;5033316;28;20405;-68
2022/10/13 11:44:59;;;;;;;10.03;9.03;;;20.20;93.30;;;;;;4952653;29;21008;-69
2022/10/13 11:47:55;;;;;;;13.57;9.30;;;20.30;93.60;;;;;;4953223;29;20507;-68
2022/10/13 11:50:37;;;;;;;10.10;9.30;;;20.30;94.30;;;;;;4950724;29;20443;-68
2022/10/13 11:53:26;;;;;;;7.30;6.70;;;20.20;93.20;;;;;;4952679;29;20411;-68
2022/10/13 11:55:54;;;;;;;9.00;8.20;;;20.20;93.90;;;;;;4948053;29;20532;-68
2022/10/13 11:58:26;;;;;;;7.27;6.77;;;20.30;93.30;;;;;;4951871;29;20437;-68
2022/10/13 12:01:13;;;;;;;9.17;8.47;;;20.30;92.80;;;;;;4952428;29;20460;-68
2022/10/13 12:03:45;;;;;;;9.53;8.77;;;20.30;92.40;;;;;;4953118;29;20804;-68
2022/10/13 12:06:19;;;;;;;10.70;6.97;;;20.30;92.70;;;;;;4952186;29;21027;-68
2022/10/13 12:08:48;;;;;;;8.33;6.93;;;20.20;92.70;;;;;;4952964;29;20455;-68
2022/10/13 12:11:25;;;;;;;11.83;7.10;;;20.00;92.90;;;;;;4952946;29;20455;-68
2022/10/13 12:13:51;;;;;;;8.47;7.50;;;20.00;93.60;;;;;;4952344;29;20396;-69
2022/10/13 12:16:17;;;;;;;8.70;7.40;;;19.90;93.80;;;;;;5009835;28;20417;-68
2022/10/13 12:18:43;;;;;;;7.17;6.47;;;19.90;93.20;;;;;;5033082;28;20421;-69
2022/10/13 12:21:19;;;;;;;7.00;6.30;;;19.80;93.40;;;;;;5032597;28;20412;-68
2022/10/13 12:23:47;;;;;;;7.70;7.10;;;19.70;93.70;;;;;;5033137;28;20180;-68
2022/10/13 12:26:23;;;;;;;10.63;8.53;;;19.60;93.80;;;;;;5030729;28;20440;-68
2022/10/13 12:28:50;;;;;;;7.80;7.00;;;19.60;94.80;;;;;;5033079;28;20395;-76
2022/10/13 12:31:41;;;;;;;8.30;7.23;;;19.50;94.70;;;;;;5032961;28;20421;-68
2022/10/13 12:34:22;;;;;;;9.43;8.20;;;19.50;95.50;;;;;;5032415;28;20402;-68
2022/10/13 12:37:20;;;;;;;12.40;7.40;;;19.40;95.90;;;;;;5033160;28;20809;-68
2022/10/13 12:39:47;;;;;;;9.50;8.60;;;19.30;95.90;;;;;;5032693;28;20881;-68
2022/10/13 12:42:13;;;;;;;11.43;8.80;;;19.30;96.10;;;;;;5032087;28;20413;-68
2022/10/13 12:44:39;;;;;;;10.93;8.67;;;19.20;96.00;;;;;;5032660;28;20457;-68
2022/10/13 12:47:25;;;;;;;9.40;7.13;;;19.20;96.60;;;;;;5014263;28;20766;-68
2022/10/13 12:49:50;;;;;;;9.17;8.47;;;19.10;97.10;;;;;;5031950;28;20500;-72
2022/10/13 12:52:23;;;;;;;8.40;7.70;;;19.00;96.80;;;;;;5032652;28;20964;-68